Time;durP1;ratioP1;P1;durP2;ratioP2;P2;SDS_P1;SDS_P2;PMS_P1;PMS_P2;Temp;Humidity;BMP_temperature;BMP_pressure;BME280_temperature;BME280_humidity;BME280_pressure;Samples;Min_cycle;Max_cycle;Signal;HPM_P1;HPM_P2
2023/10/26 00:01:17;;;;;;;28.97;19.83;;;9.90;1.00;;;;;;5054369;28;20182;-64
2023/10/26 00:03:42;;;;;;;31.77;19.80;;;9.90;1.00;;;;;;5053492;28;20258;-64
2023/10/26 00:06:08;;;;;;;29.17;21.07;;;9.90;1.00;;;;;;5053468;28;20583;-63
2023/10/26 00:08:34;;;;;;;29.93;19.03;;;9.90;1.00;;;;;;5054351;28;20246;-63
2023/10/26 00:11:03;;;;;;;31.00;19.93;;;9.90;1.00;;;;;;5054054;28;20190;-64
2023/10/26 00:13:29;;;;;;;32.37;19.70;;;10.00;1.00;;;;;;5053921;28;20666;-64
2023/10/26 00:15:54;;;;;;;30.27;20.57;;;10.00;1.00;;;;;;5053089;28;20381;-63
2023/10/26 00:18:20;;;;;;;33.47;21.80;;;10.00;1.00;;;;;;5054129;28;20540;-64
2023/10/26 00:20:46;;;;;;;31.13;20.30;;;10.00;1.00;;;;;;5054116;28;20289;-63
2023/10/26 00:23:12;;;;;;;30.00;20.77;;;10.00;1.00;;;;;;5053899;28;20488;-64
2023/10/26 00:25:38;;;;;;;29.50;20.20;;;10.10;1.00;;;;;;5053120;28;20183;-63
2023/10/26 00:28:04;;;;;;;30.40;19.73;;;10.20;1.00;;;;;;5053571;28;20159;-65
2023/10/26 00:30:29;;;;;;;31.77;20.90;;;10.20;1.00;;;;;;5051247;28;20170;-63
2023/10/26 00:32:55;;;;;;;31.30;19.73;;;10.20;1.00;;;;;;5033897;28;20524;-63
2023/10/26 00:35:21;;;;;;;30.70;20.33;;;10.20;1.00;;;;;;5032662;28;20155;-64
2023/10/26 00:37:46;;;;;;;34.70;20.73;;;10.10;1.00;;;;;;5033670;28;20278;-64
2023/10/26 00:40:12;;;;;;;33.93;19.70;;;10.10;1.00;;;;;;5032341;28;20286;-63
2023/10/26 00:42:38;;;;;;;31.97;20.70;;;10.10;1.00;;;;;;5033726;28;20690;-63
2023/10/26 00:45:05;;;;;;;29.87;19.17;;;10.10;1.00;;;;;;5032811;28;20369;-65
2023/10/26 00:47:31;;;;;;;25.80;19.63;;;10.10;1.00;;;;;;5033535;28;20429;-64
2023/10/26 00:49:59;;;;;;;30.20;19.70;;;10.10;1.00;;;;;;5033510;28;20395;-63
2023/10/26 00:52:25;;;;;;;27.73;19.10;;;10.20;1.00;;;;;;5047787;28;20368;-64
2023/10/26 00:54:52;;;;;;;27.10;17.80;;;10.10;1.00;;;;;;5052577;28;20395;-64
2023/10/26 00:57:21;;;;;;;30.70;19.13;;;10.10;1.00;;;;;;5053333;28;20474;-63
2023/10/26 00:59:48;;;;;;;29.90;18.53;;;10.10;1.00;;;;;;5053263;28;20430;-64
2023/10/26 01:02:15;;;;;;;26.00;18.10;;;10.10;1.00;;;;;;5052416;28;20471;-63
2023/10/26 01:04:41;;;;;;;28.13;18.90;;;10.00;1.00;;;;;;5052197;28;20412;-63
2023/10/26 01:07:07;;;;;;;28.93;18.03;;;10.00;1.00;;;;;;5053214;28;20413;-64
2023/10/26 01:09:33;;;;;;;26.10;17.23;;;10.00;1.00;;;;;;5053267;28;20202;-67
2023/10/26 01:11:59;;;;;;;26.10;18.30;;;10.00;1.00;;;;;;5052945;28;20818;-65
2023/10/26 01:14:24;;;;;;;32.53;19.20;;;10.10;1.00;;;;;;5053035;28;20174;-64
2023/10/26 01:16:50;;;;;;;26.20;18.67;;;10.00;1.00;;;;;;5052514;28;20502;-65
2023/10/26 01:19:16;;;;;;;29.70;20.07;;;10.00;1.00;;;;;;5052914;28;20183;-63
2023/10/26 01:21:52;;;;;;;29.90;18.90;;;10.00;1.00;;;;;;5052834;28;20449;-66
2023/10/26 01:24:18;;;;;;;27.03;18.57;;;9.90;1.00;;;;;;5053297;28;20177;-62
2023/10/26 01:26:44;;;;;;;29.97;19.77;;;10.00;1.00;;;;;;5052116;28;20396;-64
2023/10/26 01:29:10;;;;;;;30.23;20.03;;;10.00;1.00;;;;;;5052546;28;20401;-63
2023/10/26 01:31:36;;;;;;;30.30;19.67;;;10.00;1.00;;;;;;5053025;28;20372;-64
2023/10/26 01:34:01;;;;;;;31.70;21.10;;;10.10;1.00;;;;;;5052866;28;20166;-64
2023/10/26 01:36:27;;;;;;;29.20;19.60;;;10.00;1.00;;;;;;5051977;28;20683;-64
2023/10/26 01:38:55;;;;;;;29.80;20.53;;;10.00;1.00;;;;;;5052866;28;20248;-63
2023/10/26 01:41:21;;;;;;;29.10;19.27;;;10.00;1.00;;;;;;5052690;28;20201;-63
2023/10/26 01:43:47;;;;;;;30.50;19.53;;;10.00;1.00;;;;;;5052796;28;20364;-64
2023/10/26 01:46:12;;;;;;;28.47;19.27;;;10.00;1.00;;;;;;5051742;28;20806;-63
2023/10/26 01:48:38;;;;;;;33.37;19.67;;;10.00;1.00;;;;;;5052587;28;20266;-63
2023/10/26 01:51:04;;;;;;;32.17;19.20;;;9.90;1.00;;;;;;5054530;28;20171;-65
2023/10/26 01:53:30;;;;;;;31.03;19.63;;;9.90;1.00;;;;;;5055606;28;20752;-64
2023/10/26 01:55:56;;;;;;;33.50;21.63;;;9.90;1.00;;;;;;5056048;28;20384;-64
2023/10/26 01:58:22;;;;;;;31.00;21.13;;;9.90;1.00;;;;;;5056454;28;20186;-68
2023/10/26 02:00:47;;;;;;;28.57;19.20;;;10.00;1.00;;;;;;5055802;28;20253;-64
2023/10/26 02:03:15;;;;;;;30.50;19.50;;;10.00;1.00;;;;;;5056630;28;20409;-63
2023/10/26 02:05:41;;;;;;;29.40;19.40;;;10.00;1.00;;;;;;5055572;28;20175;-65
2023/10/26 02:08:07;;;;;;;28.87;19.83;;;9.90;1.00;;;;;;5055215;28;20942;-64
2023/10/26 02:10:33;;;;;;;27.40;17.80;;;9.90;1.00;;;;;;5056199;28;20376;-63
2023/10/26 02:12:59;;;;;;;27.80;17.97;;;9.90;1.00;;;;;;5056727;28;20165;-63
2023/10/26 02:15:25;;;;;;;24.30;17.80;;;9.90;1.00;;;;;;5055667;28;20376;-64
2023/10/26 02:17:51;;;;;;;26.40;18.33;;;9.80;1.00;;;;;;5056096;28;20186;-63
2023/10/26 02:20:17;;;;;;;28.17;16.63;;;9.90;1.00;;;;;;5056352;28;20432;-64
2023/10/26 02:22:42;;;;;;;24.70;16.10;;;9.90;1.00;;;;;;5056369;28;20194;-64
2023/10/26 02:25:08;;;;;;;26.10;16.50;;;9.90;1.00;;;;;;5050263;28;20471;-64
2023/10/26 02:27:34;;;;;;;25.60;15.37;;;9.90;1.00;;;;;;5036237;28;20184;-63
2023/10/26 02:30:00;;;;;;;27.87;17.60;;;9.90;1.00;;;;;;5036759;28;20226;-63
2023/10/26 02:32:27;;;;;;;20.73;15.57;;;10.00;1.00;;;;;;5036176;28;20377;-65
2023/10/26 02:34:52;;;;;;;19.40;14.50;;;10.10;1.00;;;;;;5035415;28;20460;-64
2023/10/26 02:37:19;;;;;;;20.00;13.10;;;10.10;1.00;;;;;;5035021;28;20503;-63
2023/10/26 02:39:46;;;;;;;19.30;12.07;;;10.10;1.00;;;;;;5036095;28;20199;-67
2023/10/26 02:42:11;;;;;;;20.43;13.30;;;10.10;1.00;;;;;;5035682;28;20423;-63
2023/10/26 02:44:37;;;;;;;16.83;11.70;;;10.10;1.00;;;;;;5035166;28;20369;-63
2023/10/26 02:47:03;;;;;;;16.90;12.10;;;10.10;1.00;;;;;;5035878;28;20191;-65
2023/10/26 02:49:30;;;;;;;16.70;12.60;;;10.20;1.00;;;;;;5035941;28;20325;-64
2023/10/26 02:51:57;;;;;;;16.97;12.70;;;10.20;1.00;;;;;;5035637;28;20778;-63
2023/10/26 02:54:25;;;;;;;18.03;11.17;;;10.30;1.00;;;;;;5035864;28;20434;-73
2023/10/26 02:56:51;;;;;;;15.50;10.93;;;10.20;1.00;;;;;;5040273;28;20403;-64
2023/10/26 02:59:17;;;;;;;15.60;11.37;;;10.30;1.00;;;;;;5055616;28;20419;-63
2023/10/26 03:01:42;;;;;;;15.20;10.00;;;10.20;1.00;;;;;;5053854;28;20482;-64
2023/10/26 03:04:08;;;;;;;14.00;10.53;;;10.20;1.00;;;;;;5055711;28;20600;-63
2023/10/26 03:06:38;;;;;;;14.00;10.23;;;10.20;1.00;;;;;;5054501;28;20281;-65
2023/10/26 03:09:04;;;;;;;13.07;10.53;;;10.20;1.00;;;;;;5055271;28;20163;-66
2023/10/26 03:11:32;;;;;;;13.97;10.03;;;10.10;1.00;;;;;;5055355;28;20508;-64
2023/10/26 03:13:57;;;;;;;11.87;9.70;;;10.10;1.00;;;;;;5055502;28;20405;-63
2023/10/26 03:16:23;;;;;;;12.23;9.43;;;10.10;1.00;;;;;;5054507;28;20663;-65
2023/10/26 03:18:49;;;;;;;15.57;9.20;;;10.10;1.00;;;;;;5054949;28;20209;-64
2023/10/26 03:21:16;;;;;;;10.40;9.00;;;10.10;1.00;;;;;;5055145;28;20591;-67
2023/10/26 03:23:41;;;;;;;10.77;9.47;;;10.20;1.00;;;;;;5055447;28;20245;-64
2023/10/26 03:26:11;;;;;;;11.97;8.57;;;10.20;1.00;;;;;;5053998;28;20500;-64
2023/10/26 03:28:37;;;;;;;9.20;8.10;;;10.20;1.00;;;;;;5055173;28;20182;-64
2023/10/26 03:31:09;;;;;;;11.23;9.17;;;10.30;1.00;;;;;;5054962;28;20405;-66
2023/10/26 03:33:34;;;;;;;10.80;8.83;;;10.20;1.00;;;;;;5054092;28;20213;-69
2023/10/26 03:36:00;;;;;;;11.50;9.23;;;10.30;1.00;;;;;;5053713;28;20442;-64
2023/10/26 03:38:26;;;;;;;9.60;8.40;;;10.30;1.00;;;;;;5054970;28;20206;-65
2023/10/26 03:40:51;;;;;;;9.57;8.27;;;10.40;1.00;;;;;;5053639;28;20666;-67
2023/10/26 03:43:17;;;;;;;9.30;8.40;;;10.40;1.00;;;;;;5054347;28;20171;-63
2023/10/26 03:45:45;;;;;;;7.70;7.00;;;10.50;1.00;;;;;;5054204;28;20171;-65
2023/10/26 03:48:11;;;;;;;9.60;8.30;;;10.50;1.00;;;;;;5053823;28;20178;-63
2023/10/26 03:50:37;;;;;;;9.97;7.70;;;10.50;1.00;;;;;;5054818;28;20526;-63
2023/10/26 03:53:03;;;;;;;10.30;8.07;;;10.50;1.00;;;;;;5054357;28;20171;-66
2023/10/26 03:55:29;;;;;;;10.90;8.20;;;10.60;1.00;;;;;;5053533;28;20379;-63
2023/10/26 03:57:54;;;;;;;8.90;8.10;;;10.60;1.00;;;;;;5053308;28;20781;-63
2023/10/26 04:00:21;;;;;;;10.07;9.00;;;10.60;1.00;;;;;;5054309;28;20202;-63
2023/10/26 04:02:47;;;;;;;10.40;8.20;;;10.60;1.00;;;;;;5053055;28;20395;-64
2023/10/26 04:05:13;;;;;;;9.03;7.70;;;10.60;1.00;;;;;;5052398;28;20440;-64
2023/10/26 04:07:39;;;;;;;12.37;7.20;;;10.60;1.00;;;;;;5053218;28;20563;-63
2023/10/26 04:10:07;;;;;;;9.80;7.67;;;10.60;1.00;;;;;;5054265;28;20170;-67
2023/10/26 04:12:33;;;;;;;9.80;6.50;;;10.60;1.00;;;;;;5053825;28;20832;-64
2023/10/26 04:14:58;;;;;;;9.67;7.40;;;10.70;1.00;;;;;;5053083;28;20459;-65
2023/10/26 04:17:24;;;;;;;6.43;5.77;;;10.70;1.00;;;;;;5053670;28;20524;-63
2023/10/26 04:19:50;;;;;;;8.00;5.80;;;10.60;1.00;;;;;;5052634;28;20241;-64
2023/10/26 04:22:15;;;;;;;6.07;5.47;;;10.60;1.00;;;;;;5054073;28;20685;-64
2023/10/26 04:24:41;;;;;;;5.70;5.20;;;10.60;1.00;;;;;;5053415;28;20163;-63
2023/10/26 04:27:07;;;;;;;6.80;5.43;;;10.60;1.00;;;;;;5053937;28;20261;-64
2023/10/26 04:29:33;;;;;;;6.33;5.63;;;10.60;1.00;;;;;;5053781;28;20167;-65
2023/10/26 04:31:59;;;;;;;10.60;5.20;;;10.60;1.00;;;;;;5053573;28;20416;-63
2023/10/26 04:34:25;;;;;;;8.03;5.27;;;10.60;1.00;;;;;;5046095;28;20388;-66
2023/10/26 04:36:51;;;;;;;5.50;5.00;;;10.60;1.00;;;;;;5032141;28;20413;-65
2023/10/26 04:39:18;;;;;;;6.93;5.37;;;10.60;1.00;;;;;;5033541;28;20533;-64
2023/10/26 04:41:44;;;;;;;8.00;5.67;;;10.60;1.00;;;;;;5033722;28;20837;-64
2023/10/26 04:44:10;;;;;;;9.73;6.53;;;10.50;1.00;;;;;;5033937;28;20468;-63
2023/10/26 04:46:35;;;;;;;8.97;5.57;;;10.50;1.00;;;;;;5032720;28;21004;-63
2023/10/26 04:49:01;;;;;;;8.33;5.37;;;10.50;1.00;;;;;;5032679;28;20186;-66
2023/10/26 04:51:27;;;;;;;7.63;5.63;;;10.60;1.00;;;;;;5037764;28;20267;-64
2023/10/26 04:53:53;;;;;;;7.30;5.80;;;10.50;1.00;;;;;;5053379;28;20194;-63
2023/10/26 04:56:19;;;;;;;6.43;5.30;;;10.60;1.00;;;;;;5053019;28;20493;-63
2023/10/26 04:58:45;;;;;;;7.23;5.40;;;10.70;1.00;;;;;;5053183;28;20220;-63
2023/10/26 05:01:11;;;;;;;5.07;4.60;;;10.60;1.00;;;;;;5053479;28;20179;-63
2023/10/26 05:03:37;;;;;;;7.17;4.50;;;10.60;1.00;;;;;;5053346;28;20165;-63
2023/10/26 05:06:04;;;;;;;5.73;5.20;;;10.60;1.00;;;;;;5052287;28;20198;-64
2023/10/26 05:08:29;;;;;;;6.07;4.87;;;10.60;1.00;;;;;;5053049;28;20380;-63
2023/10/26 05:10:55;;;;;;;5.87;4.87;;;10.70;1.00;;;;;;5053092;28;20407;-63
2023/10/26 05:13:21;;;;;;;6.67;4.70;;;10.70;1.00;;;;;;5052006;28;20254;-64
2023/10/26 05:15:48;;;;;;;9.50;4.83;;;10.70;1.00;;;;;;5052393;28;20167;-64
2023/10/26 05:18:14;;;;;;;4.93;4.30;;;10.70;1.00;;;;;;5053065;28;20384;-63
2023/10/26 05:20:39;;;;;;;5.37;3.80;;;10.70;1.00;;;;;;5052948;28;20947;-63
2023/10/26 05:23:06;;;;;;;4.77;4.43;;;10.70;1.00;;;;;;5053160;28;20246;-65
2023/10/26 05:25:32;;;;;;;6.37;3.60;;;10.60;1.00;;;;;;5050817;28;20497;-66
2023/10/26 05:27:59;;;;;;;5.87;3.37;;;10.60;1.00;;;;;;5052638;28;20407;-68
2023/10/26 05:30:25;;;;;;;4.70;3.97;;;10.60;1.00;;;;;;5052988;28;20634;-64
2023/10/26 05:32:51;;;;;;;3.50;3.20;;;10.60;1.00;;;;;;5051766;28;20467;-63
2023/10/26 05:35:18;;;;;;;6.87;4.23;;;10.60;1.00;;;;;;5052128;28;20536;-64
2023/10/26 05:37:44;;;;;;;4.23;3.83;;;10.50;1.00;;;;;;5052606;28;20194;-71
2023/10/26 05:40:10;;;;;;;5.70;4.40;;;10.50;1.00;;;;;;5052814;28;20943;-63
2023/10/26 05:42:36;;;;;;;3.90;3.50;;;10.50;1.00;;;;;;5051719;28;20534;-64
2023/10/26 05:45:02;;;;;;;4.60;4.10;;;10.50;1.00;;;;;;5051698;28;20376;-65
2023/10/26 05:47:28;;;;;;;4.80;3.53;;;10.50;1.00;;;;;;5052671;28;20270;-63
2023/10/26 05:49:54;;;;;;;3.97;3.20;;;10.50;1.00;;;;;;5051526;28;20501;-64
2023/10/26 05:52:20;;;;;;;6.27;3.70;;;10.50;1.00;;;;;;5052885;28;20259;-63
2023/10/26 05:54:46;;;;;;;3.23;3.00;;;10.50;1.00;;;;;;5052089;28;20802;-63
2023/10/26 05:57:12;;;;;;;3.20;2.90;;;10.50;1.00;;;;;;5052481;28;20260;-63
2023/10/26 05:59:38;;;;;;;4.00;3.00;;;10.50;1.00;;;;;;5052713;28;20449;-63
2023/10/26 06:02:04;;;;;;;6.57;3.10;;;10.50;1.00;;;;;;5052372;28;20800;-63
2023/10/26 06:04:31;;;;;;;4.53;3.70;;;10.50;1.00;;;;;;5051701;28;20471;-66
2023/10/26 06:06:56;;;;;;;3.87;3.40;;;10.40;1.00;;;;;;5051418;28;20408;-63
2023/10/26 06:09:23;;;;;;;5.60;3.80;;;10.50;1.00;;;;;;5052392;28;20466;-63
2023/10/26 06:11:49;;;;;;;4.67;3.23;;;10.50;1.00;;;;;;5052641;28;20574;-64
2023/10/26 06:14:15;;;;;;;4.37;3.77;;;10.50;1.00;;;;;;5052266;28;20417;-63
2023/10/26 06:16:41;;;;;;;5.27;3.20;;;10.40;1.00;;;;;;5051469;28;20194;-63
2023/10/26 06:19:06;;;;;;;3.43;3.13;;;10.50;1.00;;;;;;5052325;28;20256;-64
2023/10/26 06:21:32;;;;;;;8.33;3.37;;;10.50;1.00;;;;;;5052150;28;20175;-63
2023/10/26 06:23:58;;;;;;;8.00;5.00;;;10.50;1.00;;;;;;5052461;28;20497;-64
2023/10/26 06:26:23;;;;;;;3.13;2.90;;;10.50;1.00;;;;;;5045637;28;20199;-64
2023/10/26 06:28:49;;;;;;;3.87;3.27;;;10.50;1.00;;;;;;5032670;28;20184;-63
2023/10/26 06:31:15;;;;;;;4.20;3.60;;;10.50;1.00;;;;;;5032556;28;20172;-63
2023/10/26 06:33:41;;;;;;;3.40;3.20;;;10.50;1.00;;;;;;5032588;28;20172;-63
2023/10/26 06:36:08;;;;;;;3.80;3.50;;;10.50;1.00;;;;;;5031212;28;20257;-64
2023/10/26 06:38:35;;;;;;;9.13;3.67;;;10.50;1.00;;;;;;5035838;28;20837;-63
2023/10/26 06:41:00;;;;;;;4.90;3.00;;;10.60;1.00;;;;;;5036109;28;20727;-63
2023/10/26 06:43:26;;;;;;;3.40;3.20;;;10.70;1.00;;;;;;5036079;28;20384;-63
2023/10/26 06:45:52;;;;;;;3.53;3.23;;;10.60;1.00;;;;;;5035000;28;20575;-64
2023/10/26 06:48:19;;;;;;;3.10;2.87;;;10.60;1.00;;;;;;5035912;28;20460;-64
2023/10/26 06:50:45;;;;;;;2.80;2.60;;;10.60;1.00;;;;;;5034803;28;20171;-63
2023/10/26 06:53:14;;;;;;;3.03;2.73;;;10.50;1.00;;;;;;5039727;28;20380;-63
2023/10/26 06:55:41;;;;;;;2.90;2.43;;;10.50;1.00;;;;;;5034729;28;20379;-63
2023/10/26 06:58:06;;;;;;;2.70;2.40;;;10.50;1.00;;;;;;5035620;28;20377;-64
2023/10/26 07:00:34;;;;;;;2.40;2.20;;;10.50;1.00;;;;;;5034365;28;20814;-63
2023/10/26 07:03:00;;;;;;;3.03;2.43;;;10.50;1.00;;;;;;5035895;28;20251;-63
2023/10/26 07:05:26;;;;;;;2.50;2.30;;;10.50;1.00;;;;;;5033824;28;20500;-63
2023/10/26 07:07:52;;;;;;;2.33;1.93;;;10.50;1.00;;;;;;5035524;28;20534;-64
2023/10/26 07:10:19;;;;;;;1.90;1.80;;;10.50;1.00;;;;;;5035731;28;20467;-64
2023/10/26 07:12:46;;;;;;;2.90;2.30;;;10.50;1.00;;;;;;5035583;28;20639;-64
2023/10/26 07:15:12;;;;;;;2.20;2.00;;;10.40;1.00;;;;;;5034216;28;20418;-67
2023/10/26 07:17:38;;;;;;;2.67;2.20;;;10.40;1.00;;;;;;5035200;28;20460;-63
2023/10/26 07:20:05;;;;;;;3.13;2.00;;;10.40;1.00;;;;;;5035381;28;20424;-63
2023/10/26 07:22:35;;;;;;;5.10;2.10;;;10.40;1.00;;;;;;5034001;28;20385;-64
2023/10/26 07:25:02;;;;;;;4.70;2.10;;;10.40;1.00;;;;;;5034567;28;20497;-63
2023/10/26 07:27:28;;;;;;;1.80;1.70;;;10.40;1.00;;;;;;5035296;28;20514;-63
2023/10/26 07:29:54;;;;;;;2.27;2.17;;;10.40;1.00;;;;;;5033993;28;20389;-64
2023/10/26 07:32:20;;;;;;;3.60;2.77;;;10.40;1.00;;;;;;5035004;28;20533;-63
2023/10/26 07:34:46;;;;;;;1.53;1.43;;;10.50;1.00;;;;;;5033908;28;20167;-64
2023/10/26 07:37:11;;;;;;;1.77;1.67;;;10.50;1.00;;;;;;5033788;28;20973;-64
2023/10/26 07:39:37;;;;;;;1.90;1.80;;;10.40;1.00;;;;;;5033637;28;20207;-63
2023/10/26 07:42:03;;;;;;;2.70;1.70;;;10.40;1.00;;;;;;5035063;28;20167;-63
2023/10/26 07:44:30;;;;;;;1.70;1.60;;;10.30;1.00;;;;;;5034418;28;20514;-79
2023/10/26 07:46:56;;;;;;;2.07;1.90;;;10.40;1.00;;;;;;5034872;28;20397;-64
2023/10/26 07:49:22;;;;;;;2.03;1.80;;;10.40;1.00;;;;;;5033867;28;20432;-65
2023/10/26 07:51:49;;;;;;;1.47;1.37;;;10.40;1.00;;;;;;5034188;28;20448;-66
2023/10/26 07:54:15;;;;;;;1.77;1.67;;;10.40;1.00;;;;;;5034709;28;20737;-63
2023/10/26 07:56:41;;;;;;;1.83;1.73;;;10.40;1.00;;;;;;5033821;28;20525;-64
2023/10/26 07:59:07;;;;;;;2.23;1.57;;;10.50;1.00;;;;;;5034297;28;20616;-64
2023/10/26 08:01:32;;;;;;;88.30;66.23;;;10.50;1.00;;;;;;5034513;28;20171;-63
2023/10/26 08:03:58;;;;;;;4.20;3.90;;;10.60;1.00;;;;;;5033560;28;20206;-63
2023/10/26 08:06:24;;;;;;;1.83;1.73;;;10.60;1.00;;;;;;5033551;28;20210;-65
2023/10/26 08:08:53;;;;;;;1.63;1.53;;;10.50;1.00;;;;;;5034431;28;20209;-65
2023/10/26 08:11:19;;;;;;;3.73;1.90;;;10.40;1.00;;;;;;5033904;28;20397;-63
2023/10/26 08:13:45;;;;;;;2.73;2.53;;;10.40;1.00;;;;;;5033654;28;20377;-65
2023/10/26 08:16:11;;;;;;;4.97;4.57;;;10.40;1.00;;;;;;5033018;28;20192;-63
2023/10/26 08:18:38;;;;;;;1.70;1.60;;;10.50;1.00;;;;;;5042721;28;20489;-65
2023/10/26 08:21:05;;;;;;;2.90;1.90;;;10.50;1.00;;;;;;5051840;28;20753;-64
2023/10/26 08:23:32;;;;;;;3.83;2.50;;;10.50;1.00;;;;;;5053915;28;20395;-63
2023/10/26 08:26:06;;;;;;;2.70;2.50;;;10.50;1.00;;;;;;5053783;28;20372;-64
2023/10/26 08:28:33;;;;;;;3.50;2.80;;;10.40;1.00;;;;;;5052557;28;20384;-64
2023/10/26 08:31:00;;;;;;;4.57;3.57;;;10.40;1.00;;;;;;5054109;28;20435;-64
2023/10/26 08:33:27;;;;;;;4.17;3.07;;;10.40;1.00;;;;;;5054255;28;20455;-64
2023/10/26 08:35:53;;;;;;;3.53;2.47;;;10.50;1.00;;;;;;5053562;28;20504;-63
2023/10/26 08:38:18;;;;;;;4.93;1.90;;;10.40;1.00;;;;;;5043807;28;20501;-63
2023/10/26 08:40:52;;;;;;;3.60;2.57;;;10.40;1.00;;;;;;5031891;28;20172;-64
2023/10/26 08:43:18;;;;;;;2.20;2.00;;;10.50;1.00;;;;;;5034124;28;20172;-64
2023/10/26 08:45:45;;;;;;;6.37;3.10;;;10.50;1.00;;;;;;5031564;28;20389;-63
2023/10/26 08:48:18;;;;;;;5.00;4.60;;;10.60;1.00;;;;;;5045951;28;20383;-63
2023/10/26 08:50:48;;;;;;;2.37;1.90;;;10.50;1.00;;;;;;5053761;28;20466;-63
2023/10/26 08:53:15;;;;;;;9.70;2.77;;;10.50;1.00;;;;;;5053840;28;20387;-64
2023/10/26 08:55:42;;;;;;;3.00;2.30;;;10.50;1.00;;;;;;5053123;28;20389;-64
2023/10/26 08:58:08;;;;;;;3.97;2.33;;;10.50;1.00;;;;;;5052945;28;20405;-63
2023/10/26 09:00:41;;;;;;;1.80;1.70;;;10.50;1.00;;;;;;5053412;28;20536;-63
2023/10/26 09:03:07;;;;;;;5.30;3.40;;;10.40;1.00;;;;;;5053147;28;20380;-63
2023/10/26 09:05:33;;;;;;;3.10;2.90;;;10.50;1.00;;;;;;5052887;28;20396;-63
2023/10/26 09:08:18;;;;;;;3.87;2.20;;;10.50;1.00;;;;;;5053627;28;20467;-63
2023/10/26 09:10:44;;;;;;;3.17;1.70;;;10.60;1.00;;;;;;5053573;28;20408;-63
2023/10/26 09:13:11;;;;;;;1.33;1.23;;;10.70;1.00;;;;;;5052715;28;20427;-63
2023/10/26 09:15:50;;;;;;;1.20;1.10;;;10.60;1.00;;;;;;5052706;28;20166;-63
2023/10/26 09:18:16;;;;;;;1.17;1.07;;;10.50;1.00;;;;;;5052756;28;20384;-64
2023/10/26 09:21:00;;;;;;;1.50;1.40;;;10.50;1.00;;;;;;5053385;28;20429;-63
2023/10/26 09:23:29;;;;;;;2.03;1.17;;;10.40;1.00;;;;;;5052687;28;20397;-64
2023/10/26 09:25:57;;;;;;;3.27;1.27;;;10.50;1.00;;;;;;5052659;28;20371;-63
2023/10/26 09:28:23;;;;;;;1.27;1.17;;;10.50;1.00;;;;;;5053324;28;20383;-63
2023/10/26 09:30:49;;;;;;;1.87;1.33;;;10.60;1.00;;;;;;5053382;28;20384;-63
2023/10/26 09:33:24;;;;;;;1.20;1.10;;;10.50;1.00;;;;;;5053377;28;20444;-63
2023/10/26 09:35:50;;;;;;;1.93;1.30;;;10.50;1.00;;;;;;5050750;28;20619;-64
2023/10/26 09:38:21;;;;;;;1.87;1.67;;;10.60;1.00;;;;;;5051488;28;20407;-63
2023/10/26 09:40:49;;;;;;;1.43;1.30;;;10.60;1.00;;;;;;5052508;28;20467;-64
2023/10/26 09:43:14;;;;;;;4.77;1.37;;;10.60;1.00;;;;;;5053145;28;20410;-64
2023/10/26 09:45:42;;;;;;;2.73;2.07;;;10.60;1.00;;;;;;5051355;28;20866;-63
2023/10/26 09:48:10;;;;;;;2.03;1.17;;;10.60;1.00;;;;;;5052987;28;20240;-63
2023/10/26 09:50:40;;;;;;;1.60;1.20;;;10.60;1.00;;;;;;5052683;28;20388;-63
2023/10/26 09:53:06;;;;;;;1.40;1.30;;;10.70;1.00;;;;;;5052383;28;20409;-63
2023/10/26 09:55:32;;;;;;;3.00;1.30;;;10.70;1.00;;;;;;5052422;28;20397;-64
2023/10/26 09:58:06;;;;;;;1.70;1.60;;;10.60;1.00;;;;;;5052636;28;20411;-63
2023/10/26 10:00:34;;;;;;;1.80;1.67;;;10.50;1.00;;;;;;5052398;28;20465;-63
2023/10/26 10:03:10;;;;;;;2.27;2.07;;;10.60;1.00;;;;;;5053183;28;20380;-63
2023/10/26 10:05:44;;;;;;;3.90;2.33;;;10.70;1.00;;;;;;5052305;28;20399;-65
2023/10/26 10:08:10;;;;;;;1.43;1.10;;;10.90;1.00;;;;;;5052611;28;20431;-64
2023/10/26 10:10:36;;;;;;;2.13;1.33;;;11.00;1.00;;;;;;5053194;28;20873;-63
2023/10/26 10:13:02;;;;;;;2.63;1.43;;;11.00;1.00;;;;;;5055542;28;20387;-63
2023/10/26 10:15:39;;;;;;;1.50;1.20;;;10.80;1.00;;;;;;5056130;28;20376;-66
2023/10/26 10:18:06;;;;;;;2.10;1.57;;;10.80;1.00;;;;;;5038269;28;20412;-64
2023/10/26 10:20:37;;;;;;;1.60;1.50;;;10.70;1.00;;;;;;5035244;28;20449;-63
2023/10/26 10:23:03;;;;;;;1.40;1.30;;;10.70;1.00;;;;;;5036974;28;20917;-63
2023/10/26 10:25:48;;;;;;;1.60;1.50;;;10.50;1.00;;;;;;5054118;28;20398;-63
2023/10/26 10:28:14;;;;;;;1.47;1.37;;;10.50;1.00;;;;;;5055572;28;20414;-63
2023/10/26 10:30:55;;;;;;;6.20;1.50;;;10.60;1.00;;;;;;5055921;28;20384;-63
2023/10/26 10:33:26;;;;;;;1.60;1.50;;;10.60;1.00;;;;;;5056660;28;20171;-63
2023/10/26 10:36:04;;;;;;;5.33;2.07;;;10.70;1.00;;;;;;5054256;28;20423;-65
2023/10/26 10:38:31;;;;;;;1.73;1.60;;;10.70;1.00;;;;;;5055591;28;20443;-64
2023/10/26 10:41:00;;;;;;;1.50;1.40;;;10.60;1.00;;;;;;5056560;28;20388;-63
2023/10/26 10:43:36;;;;;;;2.60;2.37;;;10.50;1.00;;;;;;5055164;28;20474;-63
2023/10/26 10:46:16;;;;;;;4.93;1.77;;;10.40;1.00;;;;;;5055277;28;20395;-64
2023/10/26 10:48:54;;;;;;;2.13;1.63;;;10.40;1.00;;;;;;5055618;28;20396;-63
2023/10/26 10:51:19;;;;;;;3.63;1.57;;;10.40;1.00;;;;;;5055939;28;20386;-63
2023/10/26 10:53:50;;;;;;;2.13;1.50;;;10.30;1.00;;;;;;5056321;28;20380;-63
2023/10/26 10:56:15;;;;;;;2.93;2.10;;;10.40;1.00;;;;;;5055101;28;20187;-63
2023/10/26 10:58:41;;;;;;;2.60;1.87;;;10.40;1.00;;;;;;5054052;28;20405;-64
2023/10/26 11:01:07;;;;;;;2.03;1.80;;;10.40;1.00;;;;;;5056095;28;20564;-63
2023/10/26 11:03:33;;;;;;;1.93;1.83;;;10.50;1.00;;;;;;5056168;28;20178;-63
2023/10/26 11:05:59;;;;;;;2.40;1.93;;;10.50;1.00;;;;;;5054995;28;20211;-63
2023/10/26 11:08:25;;;;;;;2.13;1.90;;;10.50;1.00;;;;;;5055083;28;20178;-64
2023/10/26 11:10:52;;;;;;;1.70;1.60;;;10.50;1.00;;;;;;5056023;28;20385;-63
2023/10/26 11:13:20;;;;;;;1.80;1.70;;;10.50;1.00;;;;;;5055663;28;20380;-64
2023/10/26 11:15:45;;;;;;;2.87;1.87;;;10.60;1.00;;;;;;5053780;28;20467;-64
2023/10/26 11:18:11;;;;;;;3.67;1.67;;;10.60;1.00;;;;;;5054825;28;20474;-63
2023/10/26 11:20:46;;;;;;;4.33;2.23;;;10.70;1.00;;;;;;5055845;28;20191;-63
2023/10/26 11:23:14;;;;;;;2.40;2.20;;;10.70;1.00;;;;;;5053777;28;20387;-63
2023/10/26 11:25:40;;;;;;;3.50;2.03;;;10.70;1.00;;;;;;5054599;28;20385;-63
2023/10/26 11:28:07;;;;;;;2.00;1.90;;;10.60;1.00;;;;;;5054380;28;20730;-63
2023/10/26 11:30:53;;;;;;;1.93;1.83;;;10.50;1.00;;;;;;5055504;28;20423;-63
2023/10/26 11:33:35;;;;;;;2.23;1.70;;;10.50;1.00;;;;;;5055464;28;20943;-63
2023/10/26 11:36:06;;;;;;;2.80;2.13;;;10.60;1.00;;;;;;5054255;28;20435;-67
2023/10/26 11:38:32;;;;;;;2.37;2.17;;;10.70;1.00;;;;;;5053874;28;20425;-64
2023/10/26 11:40:57;;;;;;;2.13;2.00;;;10.60;1.00;;;;;;5054939;28;20414;-64
2023/10/26 11:43:38;;;;;;;4.80;2.00;;;10.60;1.00;;;;;;5054846;28;20171;-63
2023/10/26 11:46:04;;;;;;;2.10;1.90;;;10.60;1.00;;;;;;5054417;28;20190;-63
2023/10/26 11:48:33;;;;;;;3.60;2.50;;;10.60;1.00;;;;;;5055138;28;20791;-63
2023/10/26 11:50:59;;;;;;;2.30;2.10;;;10.70;1.00;;;;;;5055025;28;20567;-63
2023/10/26 11:53:26;;;;;;;2.60;1.70;;;10.70;1.00;;;;;;5053731;28;20388;-63
2023/10/26 11:55:52;;;;;;;2.63;1.93;;;10.70;1.00;;;;;;5052307;28;20414;-63
2023/10/26 11:58:18;;;;;;;2.40;2.20;;;10.70;1.00;;;;;;5055052;28;20409;-63
2023/10/26 12:00:44;;;;;;;3.13;2.10;;;10.80;1.00;;;;;;5053098;28;20439;-64
2023/10/26 12:03:10;;;;;;;2.07;1.80;;;10.70;1.00;;;;;;5054524;28;20571;-63
2023/10/26 12:05:36;;;;;;;5.20;2.27;;;10.70;1.00;;;;;;5054167;28;20183;-63
2023/10/26 12:08:02;;;;;;;2.20;2.00;;;10.60;1.00;;;;;;5043758;28;20795;-63
2023/10/26 12:10:28;;;;;;;2.00;1.90;;;10.50;1.00;;;;;;5034621;28;20249;-63
2023/10/26 12:12:54;;;;;;;3.63;1.60;;;10.40;1.00;;;;;;5034896;28;20467;-63
2023/10/26 12:15:21;;;;;;;2.00;1.80;;;10.50;1.00;;;;;;5033387;28;20730;-63
2023/10/26 12:17:50;;;;;;;3.10;2.60;;;10.70;1.00;;;;;;5051875;28;20479;-64
2023/10/26 12:20:16;;;;;;;2.67;1.93;;;10.70;1.00;;;;;;5053571;28;20449;-63
2023/10/26 12:22:42;;;;;;;2.73;2.00;;;10.70;1.00;;;;;;5054502;28;20380;-64
2023/10/26 12:25:10;;;;;;;4.10;2.33;;;10.70;1.00;;;;;;5053838;28;20398;-63
2023/10/26 12:27:39;;;;;;;2.43;2.23;;;10.60;1.00;;;;;;5054362;28;20392;-63
2023/10/26 12:30:05;;;;;;;2.67;1.93;;;10.50;1.00;;;;;;5052836;28;20413;-63
2023/10/26 12:32:31;;;;;;;9.77;2.40;;;10.50;1.00;;;;;;5053700;28;20743;-63
2023/10/26 12:34:57;;;;;;;2.10;1.90;;;10.60;1.00;;;;;;5053220;28;20841;-64
2023/10/26 12:37:22;;;;;;;4.20;1.80;;;10.70;1.00;;;;;;5053894;28;20683;-64
2023/10/26 12:39:48;;;;;;;3.53;2.43;;;10.50;1.00;;;;;;5052207;28;20203;-63
2023/10/26 12:42:14;;;;;;;2.77;2.27;;;10.50;1.00;;;;;;5054241;28;20171;-63
2023/10/26 12:44:40;;;;;;;2.90;2.40;;;10.50;1.00;;;;;;5053464;28;20562;-64
2023/10/26 12:47:06;;;;;;;2.90;2.07;;;10.50;1.00;;;;;;5053911;28;20187;-65
2023/10/26 12:49:32;;;;;;;4.70;2.37;;;10.60;1.00;;;;;;5053000;28;20214;-64
2023/10/26 12:51:58;;;;;;;2.90;2.27;;;10.70;1.00;;;;;;5053669;28;20428;-64